sensor_id;sensor_type;location;lat;lon;timestamp;temperature;humidity
38333;DHT22;25748;46.670;14.272;2022-08-25T00:01:29;20.70;58.10
38333;DHT22;25748;46.670;14.272;2022-08-25T00:03:56;20.60;58.20
38333;DHT22;25748;46.670;14.272;2022-08-25T00:06:22;20.50;58.70
38333;DHT22;25748;46.670;14.272;2022-08-25T00:08:48;20.50;58.90
38333;DHT22;25748;46.670;14.272;2022-08-25T00:11:17;20.40;59.10
38333;DHT22;25748;46.670;14.272;2022-08-25T00:13:45;20.40;59.30
38333;DHT22;25748;46.670;14.272;2022-08-25T00:16:13;20.40;59.50
38333;DHT22;25748;46.670;14.272;2022-08-25T00:18:42;20.30;59.70
38333;DHT22;25748;46.670;14.272;2022-08-25T00:21:11;20.30;59.70
38333;DHT22;25748;46.670;14.272;2022-08-25T00:23:37;20.20;59.80
38333;DHT22;25748;46.670;14.272;2022-08-25T00:26:03;20.20;59.70
38333;DHT22;25748;46.670;14.272;2022-08-25T00:28:29;20.10;59.80
38333;DHT22;25748;46.670;14.272;2022-08-25T00:30:56;20.00;59.90
38333;DHT22;25748;46.670;14.272;2022-08-25T00:33:22;19.90;60.40
38333;DHT22;25748;46.670;14.272;2022-08-25T00:35:48;19.90;60.40
38333;DHT22;25748;46.670;14.272;2022-08-25T00:38:14;19.80;60.60
38333;DHT22;25748;46.670;14.272;2022-08-25T00:40:41;19.80;60.70
38333;DHT22;25748;46.670;14.272;2022-08-25T00:43:07;19.70;61.10
38333;DHT22;25748;46.670;14.272;2022-08-25T00:45:34;19.60;61.30
38333;DHT22;25748;46.670;14.272;2022-08-25T00:48:00;19.50;61.80
38333;DHT22;25748;46.670;14.272;2022-08-25T00:50:28;19.50;62.40
38333;DHT22;25748;46.670;14.272;2022-08-25T00:52:58;19.40;62.70
38333;DHT22;25748;46.670;14.272;2022-08-25T00:55:32;19.40;62.80
38333;DHT22;25748;46.670;14.272;2022-08-25T00:58:08;19.30;62.80
38333;DHT22;25748;46.670;14.272;2022-08-25T01:00:41;19.30;63.00
38333;DHT22;25748;46.670;14.272;2022-08-25T01:03:07;19.30;63.30
38333;DHT22;25748;46.670;14.272;2022-08-25T01:05:33;19.20;63.70
38333;DHT22;25748;46.670;14.272;2022-08-25T01:08:00;19.20;64.20
38333;DHT22;25748;46.670;14.272;2022-08-25T01:10:31;19.10;64.50
38333;DHT22;25748;46.670;14.272;2022-08-25T01:13:02;19.10;65.10
38333;DHT22;25748;46.670;14.272;2022-08-25T01:15:30;19.00;65.20
38333;DHT22;25748;46.670;14.272;2022-08-25T01:17:57;19.00;65.80
38333;DHT22;25748;46.670;14.272;2022-08-25T01:20:27;18.90;66.30
38333;DHT22;25748;46.670;14.272;2022-08-25T01:22:53;18.90;66.60
38333;DHT22;25748;46.670;14.272;2022-08-25T01:28:09;18.90;67.50
38333;DHT22;25748;46.670;14.272;2022-08-25T01:30:35;18.80;68.00
38333;DHT22;25748;46.670;14.272;2022-08-25T01:33:06;18.80;68.30
38333;DHT22;25748;46.670;14.272;2022-08-25T01:35:33;18.80;69.00
38333;DHT22;25748;46.670;14.272;2022-08-25T01:38:00;18.80;69.10
38333;DHT22;25748;46.670;14.272;2022-08-25T01:40:27;18.80;69.50
38333;DHT22;25748;46.670;14.272;2022-08-25T01:43:20;18.80;69.60
38333;DHT22;25748;46.670;14.272;2022-08-25T01:45:47;18.80;69.60
38333;DHT22;25748;46.670;14.272;2022-08-25T01:48:14;18.70;69.60
38333;DHT22;25748;46.670;14.272;2022-08-25T01:50:40;18.70;70.10
38333;DHT22;25748;46.670;14.272;2022-08-25T01:53:26;18.70;70.20
38333;DHT22;25748;46.670;14.272;2022-08-25T01:55:52;18.70;70.70
38333;DHT22;25748;46.670;14.272;2022-08-25T01:58:28;18.60;70.70
38333;DHT22;25748;46.670;14.272;2022-08-25T02:00:57;18.60;70.60
38333;DHT22;25748;46.670;14.272;2022-08-25T02:03:24;18.60;70.60
38333;DHT22;25748;46.670;14.272;2022-08-25T02:05:50;18.60;70.60
38333;DHT22;25748;46.670;14.272;2022-08-25T02:08:16;18.50;70.60
38333;DHT22;25748;46.670;14.272;2022-08-25T02:10:42;18.50;70.90
38333;DHT22;25748;46.670;14.272;2022-08-25T02:13:09;18.50;71.00
38333;DHT22;25748;46.670;14.272;2022-08-25T02:15:42;18.50;71.00
38333;DHT22;25748;46.670;14.272;2022-08-25T02:18:09;18.40;71.10
38333;DHT22;25748;46.670;14.272;2022-08-25T02:20:35;18.40;71.40
38333;DHT22;25748;46.670;14.272;2022-08-25T02:23:01;18.40;71.70
38333;DHT22;25748;46.670;14.272;2022-08-25T02:25:27;18.40;72.10
38333;DHT22;25748;46.670;14.272;2022-08-25T02:27:53;18.40;72.10
38333;DHT22;25748;46.670;14.272;2022-08-25T02:30:18;18.40;72.50
38333;DHT22;25748;46.670;14.272;2022-08-25T02:32:44;18.40;72.50
38333;DHT22;25748;46.670;14.272;2022-08-25T02:35:12;18.40;73.10
38333;DHT22;25748;46.670;14.272;2022-08-25T02:37:38;18.40;73.10
38333;DHT22;25748;46.670;14.272;2022-08-25T02:40:04;18.40;73.40
38333;DHT22;25748;46.670;14.272;2022-08-25T02:42:30;18.50;73.60
38333;DHT22;25748;46.670;14.272;2022-08-25T02:44:56;18.50;73.60
38333;DHT22;25748;46.670;14.272;2022-08-25T02:47:22;18.50;73.60
38333;DHT22;25748;46.670;14.272;2022-08-25T02:49:47;18.50;73.70
38333;DHT22;25748;46.670;14.272;2022-08-25T02:52:14;18.50;73.70
38333;DHT22;25748;46.670;14.272;2022-08-25T02:54:40;18.50;73.60
38333;DHT22;25748;46.670;14.272;2022-08-25T02:57:06;18.50;74.00
38333;DHT22;25748;46.670;14.272;2022-08-25T02:59:31;18.50;73.70
38333;DHT22;25748;46.670;14.272;2022-08-25T03:01:57;18.50;73.60
38333;DHT22;25748;46.670;14.272;2022-08-25T03:04:23;18.50;73.50
38333;DHT22;25748;46.670;14.272;2022-08-25T03:06:49;18.50;73.40
38333;DHT22;25748;46.670;14.272;2022-08-25T03:09:15;18.50;73.60
38333;DHT22;25748;46.670;14.272;2022-08-25T03:11:42;18.40;73.50
38333;DHT22;25748;46.670;14.272;2022-08-25T03:14:08;18.40;73.40
38333;DHT22;25748;46.670;14.272;2022-08-25T03:16:35;18.30;73.30
38333;DHT22;25748;46.670;14.272;2022-08-25T03:19:01;18.30;73.40
38333;DHT22;25748;46.670;14.272;2022-08-25T03:21:28;18.20;74.00
38333;DHT22;25748;46.670;14.272;2022-08-25T03:23:55;18.20;73.40
38333;DHT22;25748;46.670;14.272;2022-08-25T03:26:21;18.20;73.40
38333;DHT22;25748;46.670;14.272;2022-08-25T03:29:06;18.20;73.10
38333;DHT22;25748;46.670;14.272;2022-08-25T03:31:33;18.10;73.20
38333;DHT22;25748;46.670;14.272;2022-08-25T03:34:00;18.00;73.30
38333;DHT22;25748;46.670;14.272;2022-08-25T03:36:26;18.00;73.70
38333;DHT22;25748;46.670;14.272;2022-08-25T03:38:53;17.90;73.80
38333;DHT22;25748;46.670;14.272;2022-08-25T03:41:23;17.90;73.90
38333;DHT22;25748;46.670;14.272;2022-08-25T03:43:49;17.90;74.00
38333;DHT22;25748;46.670;14.272;2022-08-25T03:46:28;17.80;74.10
38333;DHT22;25748;46.670;14.272;2022-08-25T03:48:55;17.70;74.20
38333;DHT22;25748;46.670;14.272;2022-08-25T03:51:47;17.70;74.20
38333;DHT22;25748;46.670;14.272;2022-08-25T03:54:15;17.70;74.80
38333;DHT22;25748;46.670;14.272;2022-08-25T03:56:41;17.60;74.80
38333;DHT22;25748;46.670;14.272;2022-08-25T03:59:07;17.60;74.90
38333;DHT22;25748;46.670;14.272;2022-08-25T04:01:38;17.60;75.00
38333;DHT22;25748;46.670;14.272;2022-08-25T04:04:05;17.60;75.30
38333;DHT22;25748;46.670;14.272;2022-08-25T04:06:31;17.50;75.00
38333;DHT22;25748;46.670;14.272;2022-08-25T04:08:57;17.50;75.00
38333;DHT22;25748;46.670;14.272;2022-08-25T04:11:25;17.50;74.90
38333;DHT22;25748;46.670;14.272;2022-08-25T04:13:52;17.50;74.70
38333;DHT22;25748;46.670;14.272;2022-08-25T04:16:26;17.50;75.20
38333;DHT22;25748;46.670;14.272;2022-08-25T04:18:52;17.40;75.30
38333;DHT22;25748;46.670;14.272;2022-08-25T04:21:20;17.50;75.30
38333;DHT22;25748;46.670;14.272;2022-08-25T04:23:47;17.40;75.30
38333;DHT22;25748;46.670;14.272;2022-08-25T04:26:25;17.40;75.70
38333;DHT22;25748;46.670;14.272;2022-08-25T04:28:52;17.40;76.10
38333;DHT22;25748;46.670;14.272;2022-08-25T04:31:20;17.40;76.60
38333;DHT22;25748;46.670;14.272;2022-08-25T04:33:48;17.40;76.40
38333;DHT22;25748;46.670;14.272;2022-08-25T04:36:16;17.30;77.20
38333;DHT22;25748;46.670;14.272;2022-08-25T04:38:43;17.30;77.50
38333;DHT22;25748;46.670;14.272;2022-08-25T04:41:11;17.30;77.70
38333;DHT22;25748;46.670;14.272;2022-08-25T04:43:38;17.20;78.00
38333;DHT22;25748;46.670;14.272;2022-08-25T04:46:06;17.20;78.00
38333;DHT22;25748;46.670;14.272;2022-08-25T04:48:33;17.20;78.00
38333;DHT22;25748;46.670;14.272;2022-08-25T04:51:07;17.20;77.80
38333;DHT22;25748;46.670;14.272;2022-08-25T04:53:34;17.20;78.10
38333;DHT22;25748;46.670;14.272;2022-08-25T04:56:00;17.20;78.00
38333;DHT22;25748;46.670;14.272;2022-08-25T04:58:26;17.20;77.90
38333;DHT22;25748;46.670;14.272;2022-08-25T05:00:51;17.30;77.90
38333;DHT22;25748;46.670;14.272;2022-08-25T05:03:17;17.30;78.10
38333;DHT22;25748;46.670;14.272;2022-08-25T05:05:43;17.30;78.30
38333;DHT22;25748;46.670;14.272;2022-08-25T05:08:09;17.30;78.40
38333;DHT22;25748;46.670;14.272;2022-08-25T05:10:39;17.30;78.50
38333;DHT22;25748;46.670;14.272;2022-08-25T05:13:14;17.30;78.70
38333;DHT22;25748;46.670;14.272;2022-08-25T05:16:00;17.40;79.20
38333;DHT22;25748;46.670;14.272;2022-08-25T05:19:18;17.40;79.30
38333;DHT22;25748;46.670;14.272;2022-08-25T05:21:48;17.50;79.40
38333;DHT22;25748;46.670;14.272;2022-08-25T05:24:14;17.50;79.30
38333;DHT22;25748;46.670;14.272;2022-08-25T05:26:40;17.50;79.60
38333;DHT22;25748;46.670;14.272;2022-08-25T05:29:06;17.50;79.60
38333;DHT22;25748;46.670;14.272;2022-08-25T05:31:32;17.60;79.80
38333;DHT22;25748;46.670;14.272;2022-08-25T05:33:58;17.70;79.70
38333;DHT22;25748;46.670;14.272;2022-08-25T05:36:26;17.70;79.30
38333;DHT22;25748;46.670;14.272;2022-08-25T05:38:52;17.80;79.50
38333;DHT22;25748;46.670;14.272;2022-08-25T05:41:20;17.90;79.70
38333;DHT22;25748;46.670;14.272;2022-08-25T05:43:48;18.00;79.70
38333;DHT22;25748;46.670;14.272;2022-08-25T05:46:17;18.10;78.90
38333;DHT22;25748;46.670;14.272;2022-08-25T05:48:44;18.20;78.60
38333;DHT22;25748;46.670;14.272;2022-08-25T05:51:10;18.30;78.30
38333;DHT22;25748;46.670;14.272;2022-08-25T05:53:37;18.40;77.90
38333;DHT22;25748;46.670;14.272;2022-08-25T05:56:03;18.50;77.60
38333;DHT22;25748;46.670;14.272;2022-08-25T05:58:30;18.60;76.90
38333;DHT22;25748;46.670;14.272;2022-08-25T06:00:57;18.70;76.10
38333;DHT22;25748;46.670;14.272;2022-08-25T06:03:44;18.70;75.40
38333;DHT22;25748;46.670;14.272;2022-08-25T06:06:09;18.90;75.10
38333;DHT22;25748;46.670;14.272;2022-08-25T06:08:35;18.90;74.20
38333;DHT22;25748;46.670;14.272;2022-08-25T06:11:01;19.10;73.80
38333;DHT22;25748;46.670;14.272;2022-08-25T06:13:26;19.30;73.60
38333;DHT22;25748;46.670;14.272;2022-08-25T06:15:57;19.50;72.60
38333;DHT22;25748;46.670;14.272;2022-08-25T06:18:22;19.80;71.30
38333;DHT22;25748;46.670;14.272;2022-08-25T06:20:48;20.00;70.10
38333;DHT22;25748;46.670;14.272;2022-08-25T06:23:14;20.10;68.90
38333;DHT22;25748;46.670;14.272;2022-08-25T06:25:40;20.40;68.50
38333;DHT22;25748;46.670;14.272;2022-08-25T06:28:06;20.70;67.70
38333;DHT22;25748;46.670;14.272;2022-08-25T06:30:32;21.00;66.60
38333;DHT22;25748;46.670;14.272;2022-08-25T06:32:58;21.30;65.30
38333;DHT22;25748;46.670;14.272;2022-08-25T06:35:24;21.60;62.80
38333;DHT22;25748;46.670;14.272;2022-08-25T06:37:49;22.00;61.20
38333;DHT22;25748;46.670;14.272;2022-08-25T06:40:15;22.30;59.20
38333;DHT22;25748;46.670;14.272;2022-08-25T06:42:41;22.60;58.90
38333;DHT22;25748;46.670;14.272;2022-08-25T06:45:07;22.90;57.70
38333;DHT22;25748;46.670;14.272;2022-08-25T06:47:33;23.30;56.80
38333;DHT22;25748;46.670;14.272;2022-08-25T06:49:59;23.50;55.70
38333;DHT22;25748;46.670;14.272;2022-08-25T06:52:24;23.70;54.60
38333;DHT22;25748;46.670;14.272;2022-08-25T06:54:50;23.90;54.30
38333;DHT22;25748;46.670;14.272;2022-08-25T06:57:17;24.10;54.30
38333;DHT22;25748;46.670;14.272;2022-08-25T06:59:43;24.30;52.70
38333;DHT22;25748;46.670;14.272;2022-08-25T07:02:08;24.50;52.30
38333;DHT22;25748;46.670;14.272;2022-08-25T07:04:35;24.70;52.70
38333;DHT22;25748;46.670;14.272;2022-08-25T07:07:01;24.90;52.30
38333;DHT22;25748;46.670;14.272;2022-08-25T07:09:27;25.10;51.00
38333;DHT22;25748;46.670;14.272;2022-08-25T07:11:53;25.20;50.80
38333;DHT22;25748;46.670;14.272;2022-08-25T07:14:19;25.50;50.60
38333;DHT22;25748;46.670;14.272;2022-08-25T07:16:45;25.40;49.40
38333;DHT22;25748;46.670;14.272;2022-08-25T07:19:11;25.60;49.30
38333;DHT22;25748;46.670;14.272;2022-08-25T07:21:38;25.80;49.90
38333;DHT22;25748;46.670;14.272;2022-08-25T07:24:07;26.00;49.10
38333;DHT22;25748;46.670;14.272;2022-08-25T07:26:33;26.10;48.00
38333;DHT22;25748;46.670;14.272;2022-08-25T07:29:00;26.20;47.90
38333;DHT22;25748;46.670;14.272;2022-08-25T07:31:26;26.20;47.40
38333;DHT22;25748;46.670;14.272;2022-08-25T07:33:52;26.20;47.60
38333;DHT22;25748;46.670;14.272;2022-08-25T07:36:38;26.40;47.00
38333;DHT22;25748;46.670;14.272;2022-08-25T07:39:04;26.60;46.80
38333;DHT22;25748;46.670;14.272;2022-08-25T07:41:33;26.80;47.00
38333;DHT22;25748;46.670;14.272;2022-08-25T07:44:00;26.90;46.90
38333;DHT22;25748;46.670;14.272;2022-08-25T07:46:26;27.20;46.50
38333;DHT22;25748;46.670;14.272;2022-08-25T07:48:52;27.30;46.70
38333;DHT22;25748;46.670;14.272;2022-08-25T07:51:18;27.40;46.30
38333;DHT22;25748;46.670;14.272;2022-08-25T07:53:43;27.70;45.80
38333;DHT22;25748;46.670;14.272;2022-08-25T07:56:11;27.80;45.40
38333;DHT22;25748;46.670;14.272;2022-08-25T07:58:39;28.00;45.40
38333;DHT22;25748;46.670;14.272;2022-08-25T08:01:05;28.20;45.70
38333;DHT22;25748;46.670;14.272;2022-08-25T08:03:31;28.30;45.70
38333;DHT22;25748;46.670;14.272;2022-08-25T08:05:59;28.40;44.60
38333;DHT22;25748;46.670;14.272;2022-08-25T08:08:26;28.00;44.50
38333;DHT22;25748;46.670;14.272;2022-08-25T08:10:52;28.00;44.70
38333;DHT22;25748;46.670;14.272;2022-08-25T08:13:17;27.90;44.60
38333;DHT22;25748;46.670;14.272;2022-08-25T08:15:43;27.80;44.90
38333;DHT22;25748;46.670;14.272;2022-08-25T08:18:10;27.70;45.40
38333;DHT22;25748;46.670;14.272;2022-08-25T08:20:36;27.50;45.00
38333;DHT22;25748;46.670;14.272;2022-08-25T08:23:02;27.10;44.50
38333;DHT22;25748;46.670;14.272;2022-08-25T08:25:28;27.10;44.80
38333;DHT22;25748;46.670;14.272;2022-08-25T08:27:55;27.20;44.90
38333;DHT22;25748;46.670;14.272;2022-08-25T08:30:22;27.40;45.20
38333;DHT22;25748;46.670;14.272;2022-08-25T08:32:48;27.50;45.00
38333;DHT22;25748;46.670;14.272;2022-08-25T08:35:16;27.60;45.30
38333;DHT22;25748;46.670;14.272;2022-08-25T08:37:44;27.70;44.80
38333;DHT22;25748;46.670;14.272;2022-08-25T08:40:11;27.90;44.80
38333;DHT22;25748;46.670;14.272;2022-08-25T08:43:02;27.80;44.70
38333;DHT22;25748;46.670;14.272;2022-08-25T08:45:35;28.00;45.20
38333;DHT22;25748;46.670;14.272;2022-08-25T08:50:36;28.20;45.60
38333;DHT22;25748;46.670;14.272;2022-08-25T08:53:22;28.20;44.90
38333;DHT22;25748;46.670;14.272;2022-08-25T08:55:54;28.30;45.00
38333;DHT22;25748;46.670;14.272;2022-08-25T08:58:27;28.50;44.40
38333;DHT22;25748;46.670;14.272;2022-08-25T09:00:56;28.60;44.30
38333;DHT22;25748;46.670;14.272;2022-08-25T09:06:21;28.60;44.50
38333;DHT22;25748;46.670;14.272;2022-08-25T09:08:48;28.60;44.70
38333;DHT22;25748;46.670;14.272;2022-08-25T09:17:07;28.70;43.90
38333;DHT22;25748;46.670;14.272;2022-08-25T09:25:00;28.50;44.10
38333;DHT22;25748;46.670;14.272;2022-08-25T09:28:12;28.40;43.90
38333;DHT22;25748;46.670;14.272;2022-08-25T09:33:30;28.40;44.00
38333;DHT22;25748;46.670;14.272;2022-08-25T09:35:56;28.40;44.00
38333;DHT22;25748;46.670;14.272;2022-08-25T09:38:23;28.50;44.20
38333;DHT22;25748;46.670;14.272;2022-08-25T09:40:54;28.30;44.00
38333;DHT22;25748;46.670;14.272;2022-08-25T09:43:31;28.20;43.60
38333;DHT22;25748;46.670;14.272;2022-08-25T09:45:58;28.20;44.00
38333;DHT22;25748;46.670;14.272;2022-08-25T09:48:28;28.30;44.20
38333;DHT22;25748;46.670;14.272;2022-08-25T09:51:28;28.40;44.90
38333;DHT22;25748;46.670;14.272;2022-08-25T09:54:01;28.50;44.10
38333;DHT22;25748;46.670;14.272;2022-08-25T09:56:31;28.40;44.00
38333;DHT22;25748;46.670;14.272;2022-08-25T10:01:54;28.40;44.20
38333;DHT22;25748;46.670;14.272;2022-08-25T10:07:00;28.70;44.60
38333;DHT22;25748;46.670;14.272;2022-08-25T10:09:41;28.80;45.00
38333;DHT22;25748;46.670;14.272;2022-08-25T10:12:24;29.20;45.00
38333;DHT22;25748;46.670;14.272;2022-08-25T10:14:53;29.60;44.20
38333;DHT22;25748;46.670;14.272;2022-08-25T10:17:29;30.10;43.20
38333;DHT22;25748;46.670;14.272;2022-08-25T10:22:40;31.00;42.40
38333;DHT22;25748;46.670;14.272;2022-08-25T10:25:10;31.50;41.90
38333;DHT22;25748;46.670;14.272;2022-08-25T10:27:53;31.80;41.20
38333;DHT22;25748;46.670;14.272;2022-08-25T10:33:48;32.80;41.50
38333;DHT22;25748;46.670;14.272;2022-08-25T10:38:56;33.00;39.80
38333;DHT22;25748;46.670;14.272;2022-08-25T10:49:54;33.30;39.50
38333;DHT22;25748;46.670;14.272;2022-08-25T10:57:55;32.90;39.40
38333;DHT22;25748;46.670;14.272;2022-08-25T11:00:27;33.00;39.70
38333;DHT22;25748;46.670;14.272;2022-08-25T11:03:30;32.80;39.60
38333;DHT22;25748;46.670;14.272;2022-08-25T11:05:58;32.80;39.60
38333;DHT22;25748;46.670;14.272;2022-08-25T11:08:36;32.90;39.60
38333;DHT22;25748;46.670;14.272;2022-08-25T11:11:29;33.00;39.30
38333;DHT22;25748;46.670;14.272;2022-08-25T11:14:18;32.90;39.20
38333;DHT22;25748;46.670;14.272;2022-08-25T11:27:21;33.10;38.60
38333;DHT22;25748;46.670;14.272;2022-08-25T11:30:09;33.60;38.10
38333;DHT22;25748;46.670;14.272;2022-08-25T11:32:37;34.00;38.00
38333;DHT22;25748;46.670;14.272;2022-08-25T11:35:06;34.20;37.50
38333;DHT22;25748;46.670;14.272;2022-08-25T11:37:33;34.40;37.50
38333;DHT22;25748;46.670;14.272;2022-08-25T11:40:13;34.60;37.30
38333;DHT22;25748;46.670;14.272;2022-08-25T11:43:01;34.10;37.10
38333;DHT22;25748;46.670;14.272;2022-08-25T11:45:45;34.20;37.80
38333;DHT22;25748;46.670;14.272;2022-08-25T11:51:00;33.60;37.70
38333;DHT22;25748;46.670;14.272;2022-08-25T11:53:38;33.20;37.90
38333;DHT22;25748;46.670;14.272;2022-08-25T11:56:10;33.20;38.20
38333;DHT22;25748;46.670;14.272;2022-08-25T11:58:49;33.30;38.20
38333;DHT22;25748;46.670;14.272;2022-08-25T12:04:15;33.40;38.50
38333;DHT22;25748;46.670;14.272;2022-08-25T12:14:53;32.90;38.30
38333;DHT22;25748;46.670;14.272;2022-08-25T12:17:22;32.60;38.00
38333;DHT22;25748;46.670;14.272;2022-08-25T12:19:53;32.20;38.30
38333;DHT22;25748;46.670;14.272;2022-08-25T12:24:57;31.90;38.00
38333;DHT22;25748;46.670;14.272;2022-08-25T12:27:57;31.90;38.50
38333;DHT22;25748;46.670;14.272;2022-08-25T12:30:46;31.70;38.90
38333;DHT22;25748;46.670;14.272;2022-08-25T12:36:05;31.30;39.10
38333;DHT22;25748;46.670;14.272;2022-08-25T12:38:47;31.20;38.70
38333;DHT22;25748;46.670;14.272;2022-08-25T12:41:21;31.20;39.30
38333;DHT22;25748;46.670;14.272;2022-08-25T12:43:49;31.40;39.40
38333;DHT22;25748;46.670;14.272;2022-08-25T12:51:47;31.00;38.70
38333;DHT22;25748;46.670;14.272;2022-08-25T13:00:23;31.70;38.60
38333;DHT22;25748;46.670;14.272;2022-08-25T13:11:30;32.30;38.70
38333;DHT22;25748;46.670;14.272;2022-08-25T13:14:00;32.30;38.40
38333;DHT22;25748;46.670;14.272;2022-08-25T13:16:30;32.40;38.70
38333;DHT22;25748;46.670;14.272;2022-08-25T13:18:58;32.30;38.30
38333;DHT22;25748;46.670;14.272;2022-08-25T13:23:58;32.30;38.30
38333;DHT22;25748;46.670;14.272;2022-08-25T13:29:10;32.10;37.90
38333;DHT22;25748;46.670;14.272;2022-08-25T13:31:38;32.00;38.20
38333;DHT22;25748;46.670;14.272;2022-08-25T13:34:18;32.00;38.30
38333;DHT22;25748;46.670;14.272;2022-08-25T13:36:46;31.90;38.30
38333;DHT22;25748;46.670;14.272;2022-08-25T13:39:31;31.80;38.40
38333;DHT22;25748;46.670;14.272;2022-08-25T13:41:58;31.90;38.20
38333;DHT22;25748;46.670;14.272;2022-08-25T13:44:27;31.70;38.20
38333;DHT22;25748;46.670;14.272;2022-08-25T13:47:32;31.70;38.60
38333;DHT22;25748;46.670;14.272;2022-08-25T13:55:35;31.70;38.50
38333;DHT22;25748;46.670;14.272;2022-08-25T13:58:02;31.60;38.60
38333;DHT22;25748;46.670;14.272;2022-08-25T14:00:38;31.50;38.60
38333;DHT22;25748;46.670;14.272;2022-08-25T14:03:05;31.40;39.10
38333;DHT22;25748;46.670;14.272;2022-08-25T14:05:40;31.00;39.70
38333;DHT22;25748;46.670;14.272;2022-08-25T14:08:25;30.90;39.80
38333;DHT22;25748;46.670;14.272;2022-08-25T14:13:34;30.60;39.60
38333;DHT22;25748;46.670;14.272;2022-08-25T14:16:12;30.60;40.00
38333;DHT22;25748;46.670;14.272;2022-08-25T14:18:46;30.40;39.90
38333;DHT22;25748;46.670;14.272;2022-08-25T14:21:13;30.40;40.20
38333;DHT22;25748;46.670;14.272;2022-08-25T14:23:39;30.40;40.60
38333;DHT22;25748;46.670;14.272;2022-08-25T14:26:05;30.40;40.30
38333;DHT22;25748;46.670;14.272;2022-08-25T14:28:31;30.40;40.50
38333;DHT22;25748;46.670;14.272;2022-08-25T14:31:09;30.30;40.40
38333;DHT22;25748;46.670;14.272;2022-08-25T14:33:49;30.20;40.80
38333;DHT22;25748;46.670;14.272;2022-08-25T14:36:16;30.00;40.40
38333;DHT22;25748;46.670;14.272;2022-08-25T14:38:41;29.90;40.70
38333;DHT22;25748;46.670;14.272;2022-08-25T14:41:07;29.90;41.10
38333;DHT22;25748;46.670;14.272;2022-08-25T14:43:33;29.90;41.30
38333;DHT22;25748;46.670;14.272;2022-08-25T14:46:12;29.80;41.40
38333;DHT22;25748;46.670;14.272;2022-08-25T14:48:41;29.80;40.60
38333;DHT22;25748;46.670;14.272;2022-08-25T14:51:09;29.70;40.60
38333;DHT22;25748;46.670;14.272;2022-08-25T14:53:36;29.70;40.80
38333;DHT22;25748;46.670;14.272;2022-08-25T14:56:02;29.70;40.60
38333;DHT22;25748;46.670;14.272;2022-08-25T14:58:27;29.70;40.30
38333;DHT22;25748;46.670;14.272;2022-08-25T15:00:54;29.70;40.30
38333;DHT22;25748;46.670;14.272;2022-08-25T15:03:30;29.70;40.50
38333;DHT22;25748;46.670;14.272;2022-08-25T15:05:56;29.50;40.90
38333;DHT22;25748;46.670;14.272;2022-08-25T15:08:22;29.50;40.90
38333;DHT22;25748;46.670;14.272;2022-08-25T15:11:07;29.20;41.10
38333;DHT22;25748;46.670;14.272;2022-08-25T15:13:33;29.20;41.30
38333;DHT22;25748;46.670;14.272;2022-08-25T15:16:00;29.10;41.30
38333;DHT22;25748;46.670;14.272;2022-08-25T15:18:25;29.00;41.20
38333;DHT22;25748;46.670;14.272;2022-08-25T15:20:51;29.00;41.00
38333;DHT22;25748;46.670;14.272;2022-08-25T15:23:18;28.90;41.30
38333;DHT22;25748;46.670;14.272;2022-08-25T15:25:45;28.90;41.80
38333;DHT22;25748;46.670;14.272;2022-08-25T15:28:12;28.80;41.40
38333;DHT22;25748;46.670;14.272;2022-08-25T15:30:38;28.80;41.60
38333;DHT22;25748;46.670;14.272;2022-08-25T15:33:04;28.60;41.50
38333;DHT22;25748;46.670;14.272;2022-08-25T15:35:29;28.50;41.80
38333;DHT22;25748;46.670;14.272;2022-08-25T15:37:55;28.40;41.60
38333;DHT22;25748;46.670;14.272;2022-08-25T15:40:21;28.30;41.40
38333;DHT22;25748;46.670;14.272;2022-08-25T15:42:46;28.20;41.50
38333;DHT22;25748;46.670;14.272;2022-08-25T15:45:13;28.20;41.60
38333;DHT22;25748;46.670;14.272;2022-08-25T15:47:39;28.10;41.70
38333;DHT22;25748;46.670;14.272;2022-08-25T15:50:14;28.10;42.20
38333;DHT22;25748;46.670;14.272;2022-08-25T15:52:40;28.00;42.00
38333;DHT22;25748;46.670;14.272;2022-08-25T15:55:07;28.00;42.40
38333;DHT22;25748;46.670;14.272;2022-08-25T15:57:33;28.00;42.20
38333;DHT22;25748;46.670;14.272;2022-08-25T15:59:59;28.00;42.20
38333;DHT22;25748;46.670;14.272;2022-08-25T16:02:25;27.90;42.30
38333;DHT22;25748;46.670;14.272;2022-08-25T16:04:51;27.90;43.10
38333;DHT22;25748;46.670;14.272;2022-08-25T16:07:18;27.80;42.80
38333;DHT22;25748;46.670;14.272;2022-08-25T16:09:44;27.70;42.80
38333;DHT22;25748;46.670;14.272;2022-08-25T16:12:11;27.70;43.00
38333;DHT22;25748;46.670;14.272;2022-08-25T16:14:37;27.60;43.00
38333;DHT22;25748;46.670;14.272;2022-08-25T16:17:04;27.60;43.20
38333;DHT22;25748;46.670;14.272;2022-08-25T16:19:30;27.40;43.30
38333;DHT22;25748;46.670;14.272;2022-08-25T16:21:57;27.40;43.40
38333;DHT22;25748;46.670;14.272;2022-08-25T16:24:23;27.30;43.60
38333;DHT22;25748;46.670;14.272;2022-08-25T16:26:49;27.30;44.30
38333;DHT22;25748;46.670;14.272;2022-08-25T16:29:16;27.20;44.70
38333;DHT22;25748;46.670;14.272;2022-08-25T16:31:44;27.20;45.20
38333;DHT22;25748;46.670;14.272;2022-08-25T16:34:10;27.10;45.00
38333;DHT22;25748;46.670;14.272;2022-08-25T16:36:37;27.10;45.10
38333;DHT22;25748;46.670;14.272;2022-08-25T16:39:04;27.00;45.50
38333;DHT22;25748;46.670;14.272;2022-08-25T16:41:31;26.80;45.40
38333;DHT22;25748;46.670;14.272;2022-08-25T16:44:05;26.70;45.50
38333;DHT22;25748;46.670;14.272;2022-08-25T16:46:35;26.60;45.80
38333;DHT22;25748;46.670;14.272;2022-08-25T16:49:03;26.50;45.90
38333;DHT22;25748;46.670;14.272;2022-08-25T16:51:30;26.50;46.10
38333;DHT22;25748;46.670;14.272;2022-08-25T16:53:56;26.40;46.20
38333;DHT22;25748;46.670;14.272;2022-08-25T16:56:40;26.40;46.10
38333;DHT22;25748;46.670;14.272;2022-08-25T16:59:09;26.30;46.50
38333;DHT22;25748;46.670;14.272;2022-08-25T17:01:36;26.20;46.40
38333;DHT22;25748;46.670;14.272;2022-08-25T17:04:03;26.10;46.50
38333;DHT22;25748;46.670;14.272;2022-08-25T17:06:34;25.90;46.80
38333;DHT22;25748;46.670;14.272;2022-08-25T17:09:00;25.90;47.00
38333;DHT22;25748;46.670;14.272;2022-08-25T17:11:28;25.80;47.30
38333;DHT22;25748;46.670;14.272;2022-08-25T17:13:58;25.70;47.50
38333;DHT22;25748;46.670;14.272;2022-08-25T17:16:27;25.70;47.50
38333;DHT22;25748;46.670;14.272;2022-08-25T17:18:55;25.70;47.90
38333;DHT22;25748;46.670;14.272;2022-08-25T17:21:22;25.60;47.80
38333;DHT22;25748;46.670;14.272;2022-08-25T17:23:52;25.60;48.00